Terminal Aerodrome Forecast
Issued by NWS Sioux Falls, SD

Home | Current Version | Previous Version | Text Only | Print | Product List | Glossary On
Versions: 1 2 3 4 5 6 7 8 9 10 11 12 13 14 15 16 17 18 19 20 21 22 23 24 25 26 27 28 29 30 31 32 33 34 35
000
FTUS43 KFSD 202300
TAFSUX
TAF
KSUX 202339Z 2100/2124 17012G20KT P6SM BKN035
     FM210030 15009KT P6SM SCT030
     FM211000 14006KT 5SM BR SCT004 BKN008
     FM211500 14007KT 5SM BR SCT008 BKN015
     FM211700 16009KT P6SM SCT023
     FM211900 17011G18KT P6SM FEW035 BKN200=

USA.gov is the U.S. government's official web portal to all federal, state and local government web resources and services.